sensor_id;sensor_type;location;lat;lon;timestamp;temperature;humidity
9810;DHT22;4944;52.514;13.192;2023-02-28T00:01:33;2.60;99.90
9810;DHT22;4944;52.514;13.192;2023-02-28T00:04:00;2.60;99.90
9810;DHT22;4944;52.514;13.192;2023-02-28T00:06:27;2.60;99.90
9810;DHT22;4944;52.514;13.192;2023-02-28T00:08:56;2.60;99.90
9810;DHT22;4944;52.514;13.192;2023-02-28T00:11:23;2.60;99.90
9810;DHT22;4944;52.514;13.192;2023-02-28T00:13:49;2.60;99.90
9810;DHT22;4944;52.514;13.192;2023-02-28T00:16:18;2.60;99.90
9810;DHT22;4944;52.514;13.192;2023-02-28T00:18:46;2.70;99.90
9810;DHT22;4944;52.514;13.192;2023-02-28T00:21:14;2.60;99.90
9810;DHT22;4944;52.514;13.192;2023-02-28T00:23:41;2.60;99.90
9810;DHT22;4944;52.514;13.192;2023-02-28T00:26:10;2.60;99.90
9810;DHT22;4944;52.514;13.192;2023-02-28T00:28:37;2.60;99.90
9810;DHT22;4944;52.514;13.192;2023-02-28T00:31:04;2.60;99.90
9810;DHT22;4944;52.514;13.192;2023-02-28T00:33:31;2.60;99.90
9810;DHT22;4944;52.514;13.192;2023-02-28T00:36:03;2.50;99.90
9810;DHT22;4944;52.514;13.192;2023-02-28T00:38:30;2.60;99.90
9810;DHT22;4944;52.514;13.192;2023-02-28T00:40:57;2.60;99.90
9810;DHT22;4944;52.514;13.192;2023-02-28T00:43:32;2.60;99.90
9810;DHT22;4944;52.514;13.192;2023-02-28T00:45:59;2.50;99.90
9810;DHT22;4944;52.514;13.192;2023-02-28T00:48:26;2.60;99.90
9810;DHT22;4944;52.514;13.192;2023-02-28T00:50:52;2.60;99.90
9810;DHT22;4944;52.514;13.192;2023-02-28T00:53:19;2.60;99.90
9810;DHT22;4944;52.514;13.192;2023-02-28T00:55:48;2.50;99.90
9810;DHT22;4944;52.514;13.192;2023-02-28T00:58:14;2.60;99.90
9810;DHT22;4944;52.514;13.192;2023-02-28T01:00:43;2.60;99.90
9810;DHT22;4944;52.514;13.192;2023-02-28T01:03:15;2.50;99.90
9810;DHT22;4944;52.514;13.192;2023-02-28T01:05:41;2.50;99.90
9810;DHT22;4944;52.514;13.192;2023-02-28T01:08:08;2.50;99.90
9810;DHT22;4944;52.514;13.192;2023-02-28T01:10:35;2.50;99.90
9810;DHT22;4944;52.514;13.192;2023-02-28T01:13:04;2.60;99.90
9810;DHT22;4944;52.514;13.192;2023-02-28T01:15:31;2.60;99.90
9810;DHT22;4944;52.514;13.192;2023-02-28T01:17:59;2.60;99.90
9810;DHT22;4944;52.514;13.192;2023-02-28T01:20:26;2.50;99.90
9810;DHT22;4944;52.514;13.192;2023-02-28T01:22:53;2.60;99.90
9810;DHT22;4944;52.514;13.192;2023-02-28T01:25:20;2.60;99.90
9810;DHT22;4944;52.514;13.192;2023-02-28T01:27:47;2.60;99.90
9810;DHT22;4944;52.514;13.192;2023-02-28T01:30:14;2.50;99.90
9810;DHT22;4944;52.514;13.192;2023-02-28T01:32:41;2.50;99.90
9810;DHT22;4944;52.514;13.192;2023-02-28T01:35:10;2.50;99.90
9810;DHT22;4944;52.514;13.192;2023-02-28T01:37:37;2.50;99.90
9810;DHT22;4944;52.514;13.192;2023-02-28T01:40:05;2.50;99.90
9810;DHT22;4944;52.514;13.192;2023-02-28T01:42:32;2.50;99.90
9810;DHT22;4944;52.514;13.192;2023-02-28T01:45:14;2.50;99.90
9810;DHT22;4944;52.514;13.192;2023-02-28T01:47:45;2.50;99.90
9810;DHT22;4944;52.514;13.192;2023-02-28T01:50:16;2.50;99.90
9810;DHT22;4944;52.514;13.192;2023-02-28T01:52:45;2.40;99.90
9810;DHT22;4944;52.514;13.192;2023-02-28T01:55:15;2.40;99.90
9810;DHT22;4944;52.514;13.192;2023-02-28T01:57:45;2.40;99.90
9810;DHT22;4944;52.514;13.192;2023-02-28T02:00:15;2.40;99.90
9810;DHT22;4944;52.514;13.192;2023-02-28T02:02:44;2.40;99.90
9810;DHT22;4944;52.514;13.192;2023-02-28T02:05:17;2.40;99.90
9810;DHT22;4944;52.514;13.192;2023-02-28T02:07:47;2.40;99.90
9810;DHT22;4944;52.514;13.192;2023-02-28T02:10:17;2.40;99.90
9810;DHT22;4944;52.514;13.192;2023-02-28T02:12:55;2.30;99.90
9810;DHT22;4944;52.514;13.192;2023-02-28T02:15:31;2.30;99.90
9810;DHT22;4944;52.514;13.192;2023-02-28T02:18:05;2.30;99.90
9810;DHT22;4944;52.514;13.192;2023-02-28T02:21:03;2.30;99.90
9810;DHT22;4944;52.514;13.192;2023-02-28T02:23:57;2.30;99.90
9810;DHT22;4944;52.514;13.192;2023-02-28T02:30:08;2.30;99.90
9810;DHT22;4944;52.514;13.192;2023-02-28T02:33:00;2.20;99.90
9810;DHT22;4944;52.514;13.192;2023-02-28T02:35:35;2.20;99.90
9810;DHT22;4944;52.514;13.192;2023-02-28T02:38:09;2.20;99.90
9810;DHT22;4944;52.514;13.192;2023-02-28T02:40:45;2.20;99.90
9810;DHT22;4944;52.514;13.192;2023-02-28T02:43:16;2.10;99.90
9810;DHT22;4944;52.514;13.192;2023-02-28T02:45:49;2.10;99.90
9810;DHT22;4944;52.514;13.192;2023-02-28T02:48:19;2.00;99.90
9810;DHT22;4944;52.514;13.192;2023-02-28T02:50:52;2.00;99.90
9810;DHT22;4944;52.514;13.192;2023-02-28T02:53:23;1.90;99.90
9810;DHT22;4944;52.514;13.192;2023-02-28T02:55:52;1.90;99.90
9810;DHT22;4944;52.514;13.192;2023-02-28T02:58:23;1.90;99.90
9810;DHT22;4944;52.514;13.192;2023-02-28T03:00:53;1.80;99.90
9810;DHT22;4944;52.514;13.192;2023-02-28T03:03:22;1.80;99.90
9810;DHT22;4944;52.514;13.192;2023-02-28T03:05:56;1.70;99.90
9810;DHT22;4944;52.514;13.192;2023-02-28T03:08:23;1.70;99.90
9810;DHT22;4944;52.514;13.192;2023-02-28T03:10:51;1.60;99.90
9810;DHT22;4944;52.514;13.192;2023-02-28T03:13:45;1.60;99.90
9810;DHT22;4944;52.514;13.192;2023-02-28T03:16:32;1.60;99.90
9810;DHT22;4944;52.514;13.192;2023-02-28T03:19:24;1.60;99.90
9810;DHT22;4944;52.514;13.192;2023-02-28T03:22:01;1.60;99.90
9810;DHT22;4944;52.514;13.192;2023-02-28T03:24:36;1.60;99.90
9810;DHT22;4944;52.514;13.192;2023-02-28T03:27:09;1.60;99.90
9810;DHT22;4944;52.514;13.192;2023-02-28T03:29:40;1.60;99.90
9810;DHT22;4944;52.514;13.192;2023-02-28T03:32:14;1.50;99.90
9810;DHT22;4944;52.514;13.192;2023-02-28T03:34:50;1.50;99.90
9810;DHT22;4944;52.514;13.192;2023-02-28T03:37:22;1.50;99.90
9810;DHT22;4944;52.514;13.192;2023-02-28T03:39:55;1.40;99.90
9810;DHT22;4944;52.514;13.192;2023-02-28T03:42:25;1.40;99.90
9810;DHT22;4944;52.514;13.192;2023-02-28T03:44:57;1.30;99.90
9810;DHT22;4944;52.514;13.192;2023-02-28T03:47:29;1.30;99.90
9810;DHT22;4944;52.514;13.192;2023-02-28T03:50:02;1.30;99.90
9810;DHT22;4944;52.514;13.192;2023-02-28T03:52:35;1.20;99.90
9810;DHT22;4944;52.514;13.192;2023-02-28T03:55:08;1.10;99.90
9810;DHT22;4944;52.514;13.192;2023-02-28T03:57:40;1.10;99.90
9810;DHT22;4944;52.514;13.192;2023-02-28T04:00:12;1.10;99.90
9810;DHT22;4944;52.514;13.192;2023-02-28T04:02:40;1.10;99.90
9810;DHT22;4944;52.514;13.192;2023-02-28T04:05:07;1.00;99.90
9810;DHT22;4944;52.514;13.192;2023-02-28T04:07:36;1.00;99.90
9810;DHT22;4944;52.514;13.192;2023-02-28T04:10:03;1.00;99.90
9810;DHT22;4944;52.514;13.192;2023-02-28T04:12:30;1.00;99.90
9810;DHT22;4944;52.514;13.192;2023-02-28T04:14:57;0.90;99.90
9810;DHT22;4944;52.514;13.192;2023-02-28T04:17:24;1.00;99.90
9810;DHT22;4944;52.514;13.192;2023-02-28T04:19:51;0.90;99.90
9810;DHT22;4944;52.514;13.192;2023-02-28T04:22:19;0.90;99.90
9810;DHT22;4944;52.514;13.192;2023-02-28T04:24:47;0.90;99.90
9810;DHT22;4944;52.514;13.192;2023-02-28T04:27:14;0.90;99.90
9810;DHT22;4944;52.514;13.192;2023-02-28T04:29:41;0.80;99.90
9810;DHT22;4944;52.514;13.192;2023-02-28T04:32:10;0.80;99.90
9810;DHT22;4944;52.514;13.192;2023-02-28T04:34:37;0.80;99.90
9810;DHT22;4944;52.514;13.192;2023-02-28T04:37:05;0.80;99.90
9810;DHT22;4944;52.514;13.192;2023-02-28T04:39:35;0.80;99.90
9810;DHT22;4944;52.514;13.192;2023-02-28T04:42:03;0.80;99.90
9810;DHT22;4944;52.514;13.192;2023-02-28T04:44:30;0.80;99.90
9810;DHT22;4944;52.514;13.192;2023-02-28T04:46:57;0.80;99.90
9810;DHT22;4944;52.514;13.192;2023-02-28T04:49:24;0.80;99.90
9810;DHT22;4944;52.514;13.192;2023-02-28T04:51:51;0.70;99.90
9810;DHT22;4944;52.514;13.192;2023-02-28T04:54:18;0.70;99.90
9810;DHT22;4944;52.514;13.192;2023-02-28T04:56:45;0.60;99.90
9810;DHT22;4944;52.514;13.192;2023-02-28T04:59:15;0.70;99.90
9810;DHT22;4944;52.514;13.192;2023-02-28T05:01:46;0.60;99.90
9810;DHT22;4944;52.514;13.192;2023-02-28T05:04:13;0.70;99.90
9810;DHT22;4944;52.514;13.192;2023-02-28T05:06:40;0.70;99.90
9810;DHT22;4944;52.514;13.192;2023-02-28T05:09:07;0.60;99.90
9810;DHT22;4944;52.514;13.192;2023-02-28T05:11:34;0.50;99.90
9810;DHT22;4944;52.514;13.192;2023-02-28T05:14:01;0.50;99.90
9810;DHT22;4944;52.514;13.192;2023-02-28T05:16:31;0.50;99.90
9810;DHT22;4944;52.514;13.192;2023-02-28T05:18:58;0.50;99.90
9810;DHT22;4944;52.514;13.192;2023-02-28T05:21:28;0.50;99.90
9810;DHT22;4944;52.514;13.192;2023-02-28T05:23:55;0.50;99.90
9810;DHT22;4944;52.514;13.192;2023-02-28T05:26:23;0.40;99.90
9810;DHT22;4944;52.514;13.192;2023-02-28T05:28:50;0.40;99.90
9810;DHT22;4944;52.514;13.192;2023-02-28T05:31:17;0.40;99.90
9810;DHT22;4944;52.514;13.192;2023-02-28T05:33:46;0.30;99.90
9810;DHT22;4944;52.514;13.192;2023-02-28T05:36:13;0.30;99.90
9810;DHT22;4944;52.514;13.192;2023-02-28T05:38:40;0.30;99.90
9810;DHT22;4944;52.514;13.192;2023-02-28T05:41:07;0.30;99.90
9810;DHT22;4944;52.514;13.192;2023-02-28T05:43:35;0.30;99.90
9810;DHT22;4944;52.514;13.192;2023-02-28T05:46:03;0.30;99.90
9810;DHT22;4944;52.514;13.192;2023-02-28T05:48:31;0.30;99.90
9810;DHT22;4944;52.514;13.192;2023-02-28T05:50:59;0.30;99.90
9810;DHT22;4944;52.514;13.192;2023-02-28T05:53:26;0.30;99.90
9810;DHT22;4944;52.514;13.192;2023-02-28T05:55:53;0.30;99.90
9810;DHT22;4944;52.514;13.192;2023-02-28T05:58:21;0.30;99.90
9810;DHT22;4944;52.514;13.192;2023-02-28T06:00:48;0.30;99.90
9810;DHT22;4944;52.514;13.192;2023-02-28T06:03:15;0.30;99.90
9810;DHT22;4944;52.514;13.192;2023-02-28T06:05:42;0.30;99.90
9810;DHT22;4944;52.514;13.192;2023-02-28T06:08:10;0.30;99.90
9810;DHT22;4944;52.514;13.192;2023-02-28T06:10:37;0.20;99.90
9810;DHT22;4944;52.514;13.192;2023-02-28T06:13:04;0.20;99.90
9810;DHT22;4944;52.514;13.192;2023-02-28T06:15:32;0.30;99.90
9810;DHT22;4944;52.514;13.192;2023-02-28T06:17:59;0.40;99.90
9810;DHT22;4944;52.514;13.192;2023-02-28T06:20:27;0.50;99.90
9810;DHT22;4944;52.514;13.192;2023-02-28T06:22:55;0.60;99.90
9810;DHT22;4944;52.514;13.192;2023-02-28T06:25:25;0.70;99.90
9810;DHT22;4944;52.514;13.192;2023-02-28T06:27:52;0.70;99.90
9810;DHT22;4944;52.514;13.192;2023-02-28T06:30:19;0.60;99.90
9810;DHT22;4944;52.514;13.192;2023-02-28T06:32:49;0.50;99.90
9810;DHT22;4944;52.514;13.192;2023-02-28T06:35:16;0.50;99.90
9810;DHT22;4944;52.514;13.192;2023-02-28T06:37:43;0.40;99.90
9810;DHT22;4944;52.514;13.192;2023-02-28T06:40:11;0.40;99.90
9810;DHT22;4944;52.514;13.192;2023-02-28T06:42:39;0.30;99.90
9810;DHT22;4944;52.514;13.192;2023-02-28T06:45:07;0.30;99.90
9810;DHT22;4944;52.514;13.192;2023-02-28T06:47:35;0.30;99.90
9810;DHT22;4944;52.514;13.192;2023-02-28T06:50:03;0.30;99.90
9810;DHT22;4944;52.514;13.192;2023-02-28T06:52:30;0.30;99.90
9810;DHT22;4944;52.514;13.192;2023-02-28T06:54:57;0.30;99.90
9810;DHT22;4944;52.514;13.192;2023-02-28T06:57:27;0.30;99.90
9810;DHT22;4944;52.514;13.192;2023-02-28T06:59:58;0.30;99.90
9810;DHT22;4944;52.514;13.192;2023-02-28T07:02:25;0.30;99.90
9810;DHT22;4944;52.514;13.192;2023-02-28T07:04:52;0.30;99.90
9810;DHT22;4944;52.514;13.192;2023-02-28T07:07:19;0.30;99.90
9810;DHT22;4944;52.514;13.192;2023-02-28T07:09:46;0.40;99.90
9810;DHT22;4944;52.514;13.192;2023-02-28T07:12:13;0.40;99.90
9810;DHT22;4944;52.514;13.192;2023-02-28T07:14:40;0.40;99.90
9810;DHT22;4944;52.514;13.192;2023-02-28T07:17:08;0.50;99.90
9810;DHT22;4944;52.514;13.192;2023-02-28T07:19:37;0.50;99.90
9810;DHT22;4944;52.514;13.192;2023-02-28T07:22:04;0.60;99.90
9810;DHT22;4944;52.514;13.192;2023-02-28T07:24:31;0.60;99.90
9810;DHT22;4944;52.514;13.192;2023-02-28T07:26:59;0.70;99.90
9810;DHT22;4944;52.514;13.192;2023-02-28T07:29:26;0.80;99.90
9810;DHT22;4944;52.514;13.192;2023-02-28T07:31:53;0.90;99.90
9810;DHT22;4944;52.514;13.192;2023-02-28T07:34:22;0.90;99.90
9810;DHT22;4944;52.514;13.192;2023-02-28T07:36:49;1.00;99.90
9810;DHT22;4944;52.514;13.192;2023-02-28T07:39:19;1.00;99.90
9810;DHT22;4944;52.514;13.192;2023-02-28T07:41:46;1.10;99.90
9810;DHT22;4944;52.514;13.192;2023-02-28T07:44:12;1.20;99.90
9810;DHT22;4944;52.514;13.192;2023-02-28T07:46:39;1.30;99.90
9810;DHT22;4944;52.514;13.192;2023-02-28T07:49:06;1.40;99.90
9810;DHT22;4944;52.514;13.192;2023-02-28T07:51:34;1.50;99.90
9810;DHT22;4944;52.514;13.192;2023-02-28T07:54:01;1.60;99.90
9810;DHT22;4944;52.514;13.192;2023-02-28T07:56:28;1.60;99.90
9810;DHT22;4944;52.514;13.192;2023-02-28T07:58:55;1.70;99.90
9810;DHT22;4944;52.514;13.192;2023-02-28T08:01:22;1.80;99.90
9810;DHT22;4944;52.514;13.192;2023-02-28T08:03:49;1.90;99.90
9810;DHT22;4944;52.514;13.192;2023-02-28T08:06:18;2.00;99.90
9810;DHT22;4944;52.514;13.192;2023-02-28T08:08:47;2.10;99.90
9810;DHT22;4944;52.514;13.192;2023-02-28T08:11:15;2.20;99.90
9810;DHT22;4944;52.514;13.192;2023-02-28T08:13:42;2.30;99.90
9810;DHT22;4944;52.514;13.192;2023-02-28T08:16:10;2.30;99.90
9810;DHT22;4944;52.514;13.192;2023-02-28T08:18:37;2.40;99.90
9810;DHT22;4944;52.514;13.192;2023-02-28T08:21:07;2.50;99.90
9810;DHT22;4944;52.514;13.192;2023-02-28T08:23:34;2.60;99.90
9810;DHT22;4944;52.514;13.192;2023-02-28T08:26:03;2.70;99.90
9810;DHT22;4944;52.514;13.192;2023-02-28T08:28:30;2.80;99.90
9810;DHT22;4944;52.514;13.192;2023-02-28T08:30:57;2.80;99.90
9810;DHT22;4944;52.514;13.192;2023-02-28T08:33:25;2.90;99.90
9810;DHT22;4944;52.514;13.192;2023-02-28T08:35:55;3.00;99.90
9810;DHT22;4944;52.514;13.192;2023-02-28T08:38:22;3.00;99.90
9810;DHT22;4944;52.514;13.192;2023-02-28T08:40:50;3.10;99.90
9810;DHT22;4944;52.514;13.192;2023-02-28T08:43:24;3.20;99.90
9810;DHT22;4944;52.514;13.192;2023-02-28T08:45:51;3.20;99.90
9810;DHT22;4944;52.514;13.192;2023-02-28T08:48:18;3.20;99.90
9810;DHT22;4944;52.514;13.192;2023-02-28T08:50:54;3.30;99.90
9810;DHT22;4944;52.514;13.192;2023-02-28T08:53:21;3.30;99.90
9810;DHT22;4944;52.514;13.192;2023-02-28T08:55:56;3.40;99.90
9810;DHT22;4944;52.514;13.192;2023-02-28T08:58:24;3.50;99.90
9810;DHT22;4944;52.514;13.192;2023-02-28T09:00:52;3.50;99.90
9810;DHT22;4944;52.514;13.192;2023-02-28T09:03:19;3.60;99.90
9810;DHT22;4944;52.514;13.192;2023-02-28T09:05:53;3.60;99.90
9810;DHT22;4944;52.514;13.192;2023-02-28T09:08:20;3.70;99.90
9810;DHT22;4944;52.514;13.192;2023-02-28T09:10:47;3.70;99.90
9810;DHT22;4944;52.514;13.192;2023-02-28T09:13:14;3.80;99.90
9810;DHT22;4944;52.514;13.192;2023-02-28T09:15:42;3.90;99.90
9810;DHT22;4944;52.514;13.192;2023-02-28T09:18:09;4.00;99.90
9810;DHT22;4944;52.514;13.192;2023-02-28T09:20:37;4.10;99.90
9810;DHT22;4944;52.514;13.192;2023-02-28T09:23:04;4.10;99.90
9810;DHT22;4944;52.514;13.192;2023-02-28T09:25:32;4.20;99.90
9810;DHT22;4944;52.514;13.192;2023-02-28T09:27:59;4.30;99.90
9810;DHT22;4944;52.514;13.192;2023-02-28T09:30:26;4.30;99.90
9810;DHT22;4944;52.514;13.192;2023-02-28T09:32:55;4.40;99.90
9810;DHT22;4944;52.514;13.192;2023-02-28T09:35:22;4.50;99.90
9810;DHT22;4944;52.514;13.192;2023-02-28T09:37:50;4.50;99.90
9810;DHT22;4944;52.514;13.192;2023-02-28T09:40:19;4.60;99.90
9810;DHT22;4944;52.514;13.192;2023-02-28T09:42:48;4.70;99.90
9810;DHT22;4944;52.514;13.192;2023-02-28T09:45:22;4.80;99.90
9810;DHT22;4944;52.514;13.192;2023-02-28T09:47:52;4.90;99.90
9810;DHT22;4944;52.514;13.192;2023-02-28T09:50:30;4.90;99.90
9810;DHT22;4944;52.514;13.192;2023-02-28T09:52:59;5.00;99.90
9810;DHT22;4944;52.514;13.192;2023-02-28T09:55:30;5.10;99.90
9810;DHT22;4944;52.514;13.192;2023-02-28T09:58:00;5.10;99.90
9810;DHT22;4944;52.514;13.192;2023-02-28T10:00:32;5.30;99.90
9810;DHT22;4944;52.514;13.192;2023-02-28T10:03:22;5.50;99.90
9810;DHT22;4944;52.514;13.192;2023-02-28T10:06:01;5.60;99.90
9810;DHT22;4944;52.514;13.192;2023-02-28T10:08:34;5.70;99.90
9810;DHT22;4944;52.514;13.192;2023-02-28T10:11:12;5.80;99.90
9810;DHT22;4944;52.514;13.192;2023-02-28T10:13:50;5.90;99.90
9810;DHT22;4944;52.514;13.192;2023-02-28T10:16:24;5.90;99.90
9810;DHT22;4944;52.514;13.192;2023-02-28T10:18:56;6.10;99.90
9810;DHT22;4944;52.514;13.192;2023-02-28T10:21:28;6.20;99.90
9810;DHT22;4944;52.514;13.192;2023-02-28T10:24:02;6.30;99.90
9810;DHT22;4944;52.514;13.192;2023-02-28T10:26:32;6.40;99.90
9810;DHT22;4944;52.514;13.192;2023-02-28T10:28:59;6.40;99.80
9810;DHT22;4944;52.514;13.192;2023-02-28T10:31:26;6.50;99.20
9810;DHT22;4944;52.514;13.192;2023-02-28T10:33:53;6.60;99.80
9810;DHT22;4944;52.514;13.192;2023-02-28T10:36:21;6.70;99.40
9810;DHT22;4944;52.514;13.192;2023-02-28T10:38:50;6.80;99.30
9810;DHT22;4944;52.514;13.192;2023-02-28T10:41:27;6.70;98.80
9810;DHT22;4944;52.514;13.192;2023-02-28T10:44:13;6.80;98.80
9810;DHT22;4944;52.514;13.192;2023-02-28T10:46:41;6.80;98.40
9810;DHT22;4944;52.514;13.192;2023-02-28T10:49:14;6.90;98.60
9810;DHT22;4944;52.514;13.192;2023-02-28T10:51:42;6.90;98.80
9810;DHT22;4944;52.514;13.192;2023-02-28T10:54:18;7.00;98.90
9810;DHT22;4944;52.514;13.192;2023-02-28T10:56:45;7.00;98.60
9810;DHT22;4944;52.514;13.192;2023-02-28T10:59:28;7.10;99.00
9810;DHT22;4944;52.514;13.192;2023-02-28T11:01:55;7.20;98.90
9810;DHT22;4944;52.514;13.192;2023-02-28T11:04:34;7.30;99.00
9810;DHT22;4944;52.514;13.192;2023-02-28T11:07:05;7.30;98.80
9810;DHT22;4944;52.514;13.192;2023-02-28T11:09:35;7.40;98.50
9810;DHT22;4944;52.514;13.192;2023-02-28T11:12:05;7.50;97.80
9810;DHT22;4944;52.514;13.192;2023-02-28T11:14:35;7.60;98.10
9810;DHT22;4944;52.514;13.192;2023-02-28T11:17:14;7.70;97.60
9810;DHT22;4944;52.514;13.192;2023-02-28T11:19:47;7.90;97.70
9810;DHT22;4944;52.514;13.192;2023-02-28T11:22:18;7.90;97.10
9810;DHT22;4944;52.514;13.192;2023-02-28T11:24:49;7.90;96.60
9810;DHT22;4944;52.514;13.192;2023-02-28T11:27:44;7.90;96.60
9810;DHT22;4944;52.514;13.192;2023-02-28T11:30:32;7.90;96.30
9810;DHT22;4944;52.514;13.192;2023-02-28T11:33:00;8.00;97.10
9810;DHT22;4944;52.514;13.192;2023-02-28T11:35:31;8.20;97.80
9810;DHT22;4944;52.514;13.192;2023-02-28T11:38:00;8.30;97.70
9810;DHT22;4944;52.514;13.192;2023-02-28T11:40:45;8.50;97.60
9810;DHT22;4944;52.514;13.192;2023-02-28T11:43:23;8.50;96.90
9810;DHT22;4944;52.514;13.192;2023-02-28T11:46:07;8.70;96.50
9810;DHT22;4944;52.514;13.192;2023-02-28T11:48:42;8.80;95.90
9810;DHT22;4944;52.514;13.192;2023-02-28T11:51:18;8.80;96.10
9810;DHT22;4944;52.514;13.192;2023-02-28T11:53:56;8.90;96.20
9810;DHT22;4944;52.514;13.192;2023-02-28T11:56:31;8.90;96.30
9810;DHT22;4944;52.514;13.192;2023-02-28T11:59:08;9.00;96.20
9810;DHT22;4944;52.514;13.192;2023-02-28T12:01:48;9.10;95.60
9810;DHT22;4944;52.514;13.192;2023-02-28T12:04:25;9.10;95.60
9810;DHT22;4944;52.514;13.192;2023-02-28T12:07:00;9.20;95.90
9810;DHT22;4944;52.514;13.192;2023-02-28T12:09:41;9.30;95.30
9810;DHT22;4944;52.514;13.192;2023-02-28T12:12:23;9.30;95.20
9810;DHT22;4944;52.514;13.192;2023-02-28T12:15:21;9.40;95.50
9810;DHT22;4944;52.514;13.192;2023-02-28T12:18:04;9.50;95.30
9810;DHT22;4944;52.514;13.192;2023-02-28T12:20:40;9.50;94.80
9810;DHT22;4944;52.514;13.192;2023-02-28T12:23:44;9.60;95.10
9810;DHT22;4944;52.514;13.192;2023-02-28T12:26:19;9.70;94.30
9810;DHT22;4944;52.514;13.192;2023-02-28T12:28:55;9.80;94.10
9810;DHT22;4944;52.514;13.192;2023-02-28T12:31:27;9.80;93.80
9810;DHT22;4944;52.514;13.192;2023-02-28T12:34:00;9.90;93.90
9810;DHT22;4944;52.514;13.192;2023-02-28T12:36:29;10.00;94.50
9810;DHT22;4944;52.514;13.192;2023-02-28T12:39:00;10.20;94.60
9810;DHT22;4944;52.514;13.192;2023-02-28T12:41:33;10.20;93.80
9810;DHT22;4944;52.514;13.192;2023-02-28T12:44:07;10.30;93.60
9810;DHT22;4944;52.514;13.192;2023-02-28T12:46:37;10.40;93.30
9810;DHT22;4944;52.514;13.192;2023-02-28T12:49:08;10.40;93.40
9810;DHT22;4944;52.514;13.192;2023-02-28T12:51:36;10.50;93.00
9810;DHT22;4944;52.514;13.192;2023-02-28T12:54:12;10.50;92.00
9810;DHT22;4944;52.514;13.192;2023-02-28T12:56:48;10.60;92.40
9810;DHT22;4944;52.514;13.192;2023-02-28T12:59:25;10.60;92.60
9810;DHT22;4944;52.514;13.192;2023-02-28T13:02:22;10.70;92.60
9810;DHT22;4944;52.514;13.192;2023-02-28T13:08:20;10.70;92.10
9810;DHT22;4944;52.514;13.192;2023-02-28T13:10:51;10.80;91.90
9810;DHT22;4944;52.514;13.192;2023-02-28T13:13:22;11.00;92.00
9810;DHT22;4944;52.514;13.192;2023-02-28T13:16:05;11.10;92.10
9810;DHT22;4944;52.514;13.192;2023-02-28T13:18:36;11.10;91.00
9810;DHT22;4944;52.514;13.192;2023-02-28T13:21:06;11.20;91.50
9810;DHT22;4944;52.514;13.192;2023-02-28T13:23:40;11.20;91.40
9810;DHT22;4944;52.514;13.192;2023-02-28T13:26:08;11.30;91.60
9810;DHT22;4944;52.514;13.192;2023-02-28T13:29:05;11.40;91.50
9810;DHT22;4944;52.514;13.192;2023-02-28T13:32:30;11.50;91.90
9810;DHT22;4944;52.514;13.192;2023-02-28T13:38:22;11.50;90.80
9810;DHT22;4944;52.514;13.192;2023-02-28T13:40:49;11.60;90.80
9810;DHT22;4944;52.514;13.192;2023-02-28T13:43:17;11.60;90.50
9810;DHT22;4944;52.514;13.192;2023-02-28T13:46:06;11.50;90.50
9810;DHT22;4944;52.514;13.192;2023-02-28T13:48:36;11.70;91.00
9810;DHT22;4944;52.514;13.192;2023-02-28T13:51:31;11.70;90.40
9810;DHT22;4944;52.514;13.192;2023-02-28T13:54:16;11.60;89.70
9810;DHT22;4944;52.514;13.192;2023-02-28T13:56:50;11.70;90.10
9810;DHT22;4944;52.514;13.192;2023-02-28T13:59:25;11.70;90.10
9810;DHT22;4944;52.514;13.192;2023-02-28T14:02:09;11.70;89.30
9810;DHT22;4944;52.514;13.192;2023-02-28T14:04:56;11.70;90.00
9810;DHT22;4944;52.514;13.192;2023-02-28T14:07:28;11.70;89.60
9810;DHT22;4944;52.514;13.192;2023-02-28T14:09:59;11.70;88.20
9810;DHT22;4944;52.514;13.192;2023-02-28T14:15:55;11.90;88.80
9810;DHT22;4944;52.514;13.192;2023-02-28T14:18:28;11.90;88.20
9810;DHT22;4944;52.514;13.192;2023-02-28T14:21:02;11.90;88.50
9810;DHT22;4944;52.514;13.192;2023-02-28T14:23:49;11.90;87.80
9810;DHT22;4944;52.514;13.192;2023-02-28T14:26:28;11.90;88.20
9810;DHT22;4944;52.514;13.192;2023-02-28T14:29:11;11.90;88.40
9810;DHT22;4944;52.514;13.192;2023-02-28T14:31:46;11.90;88.10
9810;DHT22;4944;52.514;13.192;2023-02-28T14:34:30;12.00;89.10
9810;DHT22;4944;52.514;13.192;2023-02-28T14:37:02;12.00;88.60
9810;DHT22;4944;52.514;13.192;2023-02-28T14:39:30;11.90;89.40
9810;DHT22;4944;52.514;13.192;2023-02-28T14:41:58;12.00;90.20
9810;DHT22;4944;52.514;13.192;2023-02-28T14:44:28;11.90;89.40
9810;DHT22;4944;52.514;13.192;2023-02-28T14:46:57;11.90;89.50
9810;DHT22;4944;52.514;13.192;2023-02-28T14:49:30;11.90;88.90
9810;DHT22;4944;52.514;13.192;2023-02-28T14:52:06;11.90;89.00
9810;DHT22;4944;52.514;13.192;2023-02-28T14:54:35;12.00;88.90
9810;DHT22;4944;52.514;13.192;2023-02-28T14:57:02;11.90;88.00
9810;DHT22;4944;52.514;13.192;2023-02-28T14:59:32;11.70;88.20
9810;DHT22;4944;52.514;13.192;2023-02-28T15:02:20;11.50;88.30
9810;DHT22;4944;52.514;13.192;2023-02-28T15:04:57;11.50;88.60
9810;DHT22;4944;52.514;13.192;2023-02-28T15:07:26;11.60;88.80
9810;DHT22;4944;52.514;13.192;2023-02-28T15:10:18;11.50;88.20
9810;DHT22;4944;52.514;13.192;2023-02-28T15:12:51;11.50;88.90
9810;DHT22;4944;52.514;13.192;2023-02-28T15:15:19;11.50;88.50
9810;DHT22;4944;52.514;13.192;2023-02-28T15:17:51;11.40;88.80
9810;DHT22;4944;52.514;13.192;2023-02-28T15:20:20;11.30;88.70
9810;DHT22;4944;52.514;13.192;2023-02-28T15:22:50;11.30;89.20
9810;DHT22;4944;52.514;13.192;2023-02-28T15:25:20;11.40;89.90
9810;DHT22;4944;52.514;13.192;2023-02-28T15:27:50;11.50;89.00
9810;DHT22;4944;52.514;13.192;2023-02-28T15:30:19;11.50;89.20
9810;DHT22;4944;52.514;13.192;2023-02-28T15:33:03;11.50;89.20
9810;DHT22;4944;52.514;13.192;2023-02-28T15:35:32;11.50;88.50
9810;DHT22;4944;52.514;13.192;2023-02-28T15:38:03;11.40;88.80
9810;DHT22;4944;52.514;13.192;2023-02-28T15:40:33;11.20;87.20
9810;DHT22;4944;52.514;13.192;2023-02-28T15:43:06;11.00;87.60
9810;DHT22;4944;52.514;13.192;2023-02-28T15:45:38;10.80;88.30
9810;DHT22;4944;52.514;13.192;2023-02-28T15:48:18;10.60;89.20
9810;DHT22;4944;52.514;13.192;2023-02-28T15:50:49;10.40;90.00
9810;DHT22;4944;52.514;13.192;2023-02-28T15:53:21;10.30;90.10
9810;DHT22;4944;52.514;13.192;2023-02-28T15:55:54;10.00;89.80
9810;DHT22;4944;52.514;13.192;2023-02-28T15:58:22;9.90;90.40
9810;DHT22;4944;52.514;13.192;2023-02-28T16:01:01;9.70;90.20
9810;DHT22;4944;52.514;13.192;2023-02-28T16:03:38;9.50;90.30
9810;DHT22;4944;52.514;13.192;2023-02-28T16:08:59;9.20;90.90
9810;DHT22;4944;52.514;13.192;2023-02-28T16:11:26;9.10;91.20
9810;DHT22;4944;52.514;13.192;2023-02-28T16:13:53;9.00;91.60
9810;DHT22;4944;52.514;13.192;2023-02-28T16:16:23;8.90;91.70
9810;DHT22;4944;52.514;13.192;2023-02-28T16:18:50;8.80;91.90
9810;DHT22;4944;52.514;13.192;2023-02-28T16:21:17;8.70;91.70
9810;DHT22;4944;52.514;13.192;2023-02-28T16:23:44;8.70;91.70
9810;DHT22;4944;52.514;13.192;2023-02-28T16:26:19;8.70;91.60
9810;DHT22;4944;52.514;13.192;2023-02-28T16:28:51;8.60;92.10
9810;DHT22;4944;52.514;13.192;2023-02-28T16:31:18;8.50;91.80
9810;DHT22;4944;52.514;13.192;2023-02-28T16:33:46;8.40;92.00
9810;DHT22;4944;52.514;13.192;2023-02-28T16:36:15;8.30;92.60
9810;DHT22;4944;52.514;13.192;2023-02-28T16:38:43;8.30;92.80
9810;DHT22;4944;52.514;13.192;2023-02-28T16:41:14;8.30;92.90
9810;DHT22;4944;52.514;13.192;2023-02-28T16:43:45;8.20;93.00